Kennesaw, Georgia
Current Conditions -  °F | °C
As of 11:58 AM on Thursday 18 Dec 2014 (Local Time) from KMGE Reporting Station
Broken Clouds Broken Clouds  
Wind Chill: 42°   Ceiling: 6000
Heat Index: 44°   Visibility: 10mi
Dew Point: 33°   Wind: 5mph
Humidity: 66%   Direction: 10°N
Pressure: 30.16"   Gusts: NA
Location:  34.02°N, 84.62°W
Report Text: KMGE 181658Z 01004KT 10SM BKN060 BKN100 BKN250 07/01 A3016 RMK AO2A SLP219 P0000 T00670007 $
Loading
Personal Weather Stations






























Interactive Weather Map New forecast layout! Learn more

10-Day Weather Forecast

Advertisements
Track Severe Weather on mobile